createdAt,value
2023-05-03T00:04:01.529Z,1.48
2023-05-03T00:08:57.894Z,2.05
2023-05-03T00:13:54.297Z,1.63
2023-05-03T00:18:50.719Z,1.50
2023-05-03T00:23:47.156Z,2.03
2023-05-03T00:28:43.806Z,1.95
2023-05-03T00:33:40.820Z,2.00
2023-05-03T00:38:37.488Z,1.23
2023-05-03T00:43:34.347Z,1.60
2023-05-03T00:48:30.953Z,2.85
2023-05-03T00:53:27.454Z,1.70
2023-05-03T00:58:24.960Z,2.15
2023-05-03T01:03:21.598Z,2.10
2023-05-03T01:08:31.928Z,2.20
2023-05-03T01:13:47.171Z,2.05
2023-05-03T01:18:49.071Z,2.35
2023-05-03T01:23:59.613Z,2.35
2023-05-03T01:28:56.154Z,2.00
2023-05-03T01:34:12.980Z,2.00
2023-05-03T01:39:16.393Z,2.17
2023-05-03T01:44:16.005Z,2.28
2023-05-03T01:49:12.883Z,2.28
2023-05-03T01:54:09.310Z,1.48
2023-05-03T01:59:05.740Z,2.17
2023-05-03T02:04:02.194Z,2.85
2023-05-03T02:08:58.791Z,2.38
2023-05-03T02:13:55.206Z,2.03
2023-05-03T02:18:52.191Z,1.88
2023-05-03T02:23:48.587Z,2.67
2023-05-03T02:28:44.976Z,2.25
2023-05-03T02:33:41.946Z,2.35
2023-05-03T02:38:38.845Z,2.50
2023-05-03T02:43:35.345Z,2.50
2023-05-03T02:48:32.207Z,2.75
2023-05-03T02:53:29.636Z,2.53
2023-05-03T02:58:26.058Z,4.00
2023-05-03T03:03:22.556Z,2.92
2023-05-03T03:08:18.969Z,2.28
2023-05-03T03:13:15.488Z,2.88
2023-05-03T03:18:12.049Z,2.65
2023-05-03T03:23:08.522Z,3.13
2023-05-03T03:28:05.300Z,3.47
2023-05-03T03:33:01.773Z,2.78
2023-05-03T03:37:58.245Z,2.63
2023-05-03T03:42:54.630Z,2.70
2023-05-03T03:47:52.254Z,2.85
2023-05-03T03:57:46.694Z,3.30
2023-05-03T04:02:43.814Z,3.53
2023-05-03T04:07:40.368Z,2.88
2023-05-03T04:12:38.038Z,3.15
2023-05-03T04:17:35.222Z,3.58
2023-05-03T04:22:32.585Z,3.40
2023-05-03T04:27:29.190Z,3.08
2023-05-03T04:32:25.933Z,3.40
2023-05-03T04:37:23.744Z,3.70
2023-05-03T04:42:20.568Z,4.30
2023-05-03T04:47:18.080Z,4.40
2023-05-03T04:52:14.634Z,3.50
2023-05-03T04:57:11.252Z,3.55
2023-05-03T05:02:08.303Z,4.28
2023-05-03T05:07:04.893Z,4.47
2023-05-03T05:12:01.990Z,4.60
2023-05-03T05:16:59.068Z,4.82
2023-05-03T05:21:55.926Z,4.68
2023-05-03T05:26:52.500Z,3.40
2023-05-03T05:31:48.954Z,3.55
2023-05-03T05:36:45.671Z,3.40
2023-05-03T05:41:42.100Z,3.30
2023-05-03T05:46:38.646Z,2.58
2023-05-03T05:51:35.117Z,2.92
2023-05-03T05:56:31.533Z,1.80
2023-05-03T06:01:27.974Z,2.05
2023-05-03T06:06:24.548Z,2.25
2023-05-03T06:11:21.489Z,1.75
2023-05-03T06:16:21.806Z,1.48
2023-05-03T06:21:18.279Z,2.55
2023-05-03T06:26:17.501Z,1.70
2023-05-03T06:31:14.107Z,2.08
2023-05-03T06:36:10.555Z,1.60
2023-05-03T06:41:06.989Z,1.50
2023-05-03T06:46:03.590Z,1.45
2023-05-03T06:51:00.144Z,1.63
2023-05-03T06:55:56.686Z,1.75
2023-05-03T07:00:54.031Z,1.50
2023-05-03T07:05:50.629Z,1.50
2023-05-03T07:10:47.112Z,1.08
2023-05-03T07:15:45.758Z,1.02
2023-05-03T07:20:42.366Z,1.20
2023-05-03T07:25:41.497Z,1.17
2023-05-03T07:30:37.958Z,1.50
2023-05-03T07:35:34.401Z,1.63
2023-05-03T07:40:33.161Z,0.95
2023-05-03T07:45:29.604Z,1.38
2023-05-03T07:50:26.124Z,1.45
2023-05-03T07:55:22.814Z,1.05
2023-05-03T08:00:19.340Z,1.75
2023-05-03T08:05:16.345Z,1.20
2023-05-03T08:10:13.094Z,1.48
2023-05-03T08:15:09.844Z,1.08
2023-05-03T08:20:08.120Z,1.40
2023-05-03T08:25:05.188Z,1.00
2023-05-03T08:30:01.758Z,1.23
2023-05-03T08:34:58.748Z,1.02
2023-05-03T08:39:55.573Z,1.17
2023-05-03T08:44:52.080Z,1.40
2023-05-03T08:49:48.951Z,1.10
2023-05-03T08:54:47.135Z,1.23
2023-05-03T09:04:45.094Z,1.58
2023-05-03T09:09:41.628Z,1.80
2023-05-03T09:14:47.437Z,2.00
2023-05-03T09:20:02.399Z,1.48
2023-05-03T09:25:01.029Z,1.30
2023-05-03T09:35:09.533Z,1.45
2023-05-03T09:40:08.124Z,1.95
2023-05-03T09:45:05.291Z,1.48
2023-05-03T09:50:01.960Z,1.35
2023-05-03T09:54:58.390Z,1.60
2023-05-03T09:59:56.020Z,1.90
2023-05-03T10:04:56.566Z,1.90
2023-05-03T10:09:53.053Z,1.90
2023-05-03T10:14:52.995Z,1.75
2023-05-03T10:19:57.680Z,1.65
2023-05-03T10:25:03.187Z,1.90
2023-05-03T10:30:00.243Z,1.80
2023-05-03T10:35:00.896Z,1.73
2023-05-03T10:40:11.507Z,1.33
2023-05-03T10:45:09.006Z,2.00
2023-05-03T10:50:14.364Z,1.97
2023-05-03T10:55:11.364Z,1.90
2023-05-03T11:00:18.244Z,1.25
2023-05-03T11:05:18.551Z,1.58
2023-05-03T11:10:18.756Z,1.58
2023-05-03T11:15:15.197Z,1.35
2023-05-03T11:20:11.903Z,1.60
2023-05-03T11:25:10.247Z,1.52
2023-05-03T11:30:08.085Z,2.00
2023-05-03T11:35:07.254Z,1.55
2023-05-03T11:40:05.083Z,1.48
2023-05-03T11:45:02.061Z,1.63
2023-05-03T11:49:58.861Z,1.65
2023-05-03T11:54:56.286Z,1.70
2023-05-03T11:59:52.696Z,1.80
2023-05-03T12:04:49.519Z,1.98
2023-05-03T12:09:54.575Z,1.80
2023-05-03T12:15:03.566Z,1.45
2023-05-03T12:21:05.057Z,1.42
2023-05-03T12:25:39.197Z,1.65
2023-05-03T12:30:38.350Z,1.45
2023-05-03T12:35:39.976Z,2.10
2023-05-03T12:40:39.128Z,1.67
2023-05-03T12:45:38.515Z,2.25
2023-05-03T12:50:38.823Z,1.70
2023-05-03T12:55:41.952Z,1.55
2023-05-03T13:00:46.702Z,1.70
2023-05-03T13:05:56.786Z,2.22
2023-05-03T13:10:53.390Z,2.22
2023-05-03T13:15:49.783Z,1.80
2023-05-03T13:20:47.714Z,2.03
2023-05-03T13:25:44.704Z,1.70
2023-05-03T13:30:41.086Z,1.80
2023-05-03T13:35:37.584Z,1.90
2023-05-03T13:40:34.359Z,2.25
2023-05-03T13:45:30.737Z,3.10
2023-05-03T13:50:30.887Z,2.00
2023-05-03T13:55:27.318Z,2.38
2023-05-03T14:00:23.830Z,2.00
2023-05-03T14:05:20.215Z,2.05
2023-05-03T14:10:16.696Z,2.08
2023-05-03T14:15:13.355Z,1.63
2023-05-03T14:20:12.017Z,2.22
2023-05-03T14:25:09.028Z,1.67
2023-05-03T14:30:07.258Z,2.35
2023-05-03T14:35:03.955Z,1.90
2023-05-03T14:40:00.624Z,1.75
2023-05-03T14:44:57.053Z,2.05
2023-05-03T14:49:53.439Z,2.10
2023-05-03T14:54:49.820Z,2.50
2023-05-03T14:59:47.785Z,2.47
2023-05-03T15:09:41.099Z,2.20
2023-05-03T15:14:37.966Z,1.90
2023-05-03T15:19:34.385Z,1.83
2023-05-03T15:24:30.930Z,1.50
2023-05-03T15:29:27.383Z,1.80
2023-05-03T15:34:23.813Z,2.13
2023-05-03T15:39:20.334Z,2.15
2023-05-03T15:44:17.106Z,2.40
2023-05-03T15:49:13.766Z,1.98
2023-05-03T15:54:10.298Z,2.30
2023-05-03T15:59:07.516Z,2.03
2023-05-03T16:04:04.264Z,1.80
2023-05-03T16:09:00.812Z,2.30
2023-05-03T16:13:57.282Z,2.15
2023-05-03T16:18:53.795Z,2.15
2023-05-03T16:23:50.201Z,2.00
2023-05-03T16:28:48.843Z,2.08
2023-05-03T16:33:46.413Z,2.20
2023-05-03T16:38:42.863Z,2.55
2023-05-03T16:43:39.991Z,2.15
2023-05-03T16:48:36.464Z,1.97
2023-05-03T16:53:32.969Z,2.03
2023-05-03T16:58:29.499Z,1.73
2023-05-03T17:03:26.079Z,1.80
2023-05-03T17:08:22.735Z,1.70
2023-05-03T17:13:19.143Z,1.60
2023-05-03T17:18:15.888Z,1.80
2023-05-03T17:23:12.423Z,1.58
2023-05-03T17:28:09.532Z,1.52
2023-05-03T17:33:06.027Z,1.77
2023-05-03T17:38:02.543Z,1.48
2023-05-03T17:42:58.995Z,1.60
2023-05-03T17:47:56.410Z,1.58
2023-05-03T17:52:54.486Z,1.58
2023-05-03T17:57:50.904Z,1.60
2023-05-03T18:02:48.159Z,2.05
2023-05-03T18:07:44.924Z,1.88
2023-05-03T18:12:42.296Z,2.10
2023-05-03T18:17:38.771Z,1.75
2023-05-03T18:22:35.205Z,1.50
2023-05-03T18:27:31.709Z,1.77
2023-05-03T18:32:28.167Z,1.73
2023-05-03T18:37:24.995Z,2.08
2023-05-03T18:42:22.417Z,1.40
2023-05-03T18:47:21.537Z,1.50
2023-05-03T18:52:21.904Z,2.20
2023-05-03T18:57:18.839Z,1.90
2023-05-03T19:02:15.242Z,2.17
2023-05-03T19:07:11.719Z,2.65
2023-05-03T19:12:08.629Z,2.08
2023-05-03T19:17:05.059Z,1.85
2023-05-03T19:22:01.750Z,1.92
2023-05-03T19:26:58.166Z,1.73
2023-05-03T19:31:54.708Z,1.70
2023-05-03T19:36:51.170Z,1.50
2023-05-03T19:41:47.632Z,1.80
2023-05-03T19:46:44.486Z,1.88
2023-05-03T19:51:40.902Z,1.90
2023-05-03T19:56:37.283Z,1.67
2023-05-03T20:01:33.680Z,1.60
2023-05-03T20:06:30.368Z,2.10
2023-05-03T20:11:26.865Z,1.98
2023-05-03T20:16:27.076Z,1.90
2023-05-03T20:21:23.715Z,2.10
2023-05-03T20:26:20.272Z,2.30
2023-05-03T20:31:17.460Z,1.77
2023-05-03T20:36:16.734Z,1.95
2023-05-03T20:41:13.469Z,1.80
2023-05-03T20:46:09.853Z,2.08
2023-05-03T20:51:09.524Z,2.10
2023-05-03T20:56:07.667Z,1.92
2023-05-03T21:01:05.261Z,2.13
2023-05-03T21:06:01.781Z,2.77
2023-05-03T21:10:58.155Z,2.10
2023-05-03T21:15:55.218Z,1.90
2023-05-03T21:20:53.639Z,1.70
2023-05-03T21:25:50.088Z,1.95
2023-05-03T21:30:49.647Z,1.90
2023-05-03T21:35:46.082Z,2.33
2023-05-03T21:40:42.557Z,2.05
2023-05-03T21:45:43.332Z,1.92
2023-05-03T21:50:39.875Z,1.92
2023-05-03T21:55:36.315Z,2.03
2023-05-03T22:00:33.088Z,2.17
2023-05-03T22:05:29.538Z,2.00
2023-05-03T22:10:25.935Z,2.78
2023-05-03T22:15:22.338Z,2.50
2023-05-03T22:20:18.756Z,2.17
2023-05-03T22:25:25.361Z,3.17
2023-05-03T22:30:21.879Z,2.53
2023-05-03T22:35:18.236Z,2.90
2023-05-03T22:40:14.747Z,3.00
2023-05-03T22:45:11.425Z,2.65
2023-05-03T22:50:08.243Z,2.70
2023-05-03T22:55:05.125Z,2.78
2023-05-03T23:00:01.777Z,2.63
2023-05-03T23:04:58.262Z,3.00
2023-05-03T23:10:02.967Z,2.28
2023-05-03T23:14:59.757Z,2.80
2023-05-03T23:19:56.338Z,3.25
2023-05-03T23:24:52.688Z,4.45
2023-05-03T23:29:50.535Z,2.88
2023-05-03T23:34:47.592Z,2.28
2023-05-03T23:39:45.201Z,3.00
2023-05-03T23:44:53.117Z,2.75
2023-05-03T23:49:51.503Z,3.58
2023-05-03T23:54:47.970Z,3.03
2023-05-03T23:59:44.523Z,3.20
